sensor_id;sensor_type;location;lat;lon;timestamp;P1;durP1;ratioP1;P2;durP2;ratioP2
15254;SDS011;7730;49.610;11.136;2023-09-19T00:00:30;5.68;;;2.10;;
15254;SDS011;7730;49.610;11.136;2023-09-19T00:02:58;6.13;;;2.20;;
15254;SDS011;7730;49.610;11.136;2023-09-19T00:05:27;5.97;;;2.20;;
15254;SDS011;7730;49.610;11.136;2023-09-19T00:07:55;4.35;;;1.90;;
15254;SDS011;7730;49.610;11.136;2023-09-19T00:10:23;6.15;;;2.13;;
15254;SDS011;7730;49.610;11.136;2023-09-19T00:12:51;6.35;;;2.10;;
15254;SDS011;7730;49.610;11.136;2023-09-19T00:15:20;5.55;;;2.00;;
15254;SDS011;7730;49.610;11.136;2023-09-19T00:17:47;4.88;;;2.00;;
15254;SDS011;7730;49.610;11.136;2023-09-19T00:20:17;5.53;;;2.20;;
15254;SDS011;7730;49.610;11.136;2023-09-19T00:22:48;3.53;;;2.10;;
15254;SDS011;7730;49.610;11.136;2023-09-19T00:25:15;3.55;;;1.80;;
15254;SDS011;7730;49.610;11.136;2023-09-19T00:27:43;3.13;;;1.90;;
15254;SDS011;7730;49.610;11.136;2023-09-19T00:30:10;5.38;;;2.20;;
15254;SDS011;7730;49.610;11.136;2023-09-19T00:32:41;4.05;;;1.92;;
15254;SDS011;7730;49.610;11.136;2023-09-19T00:35:08;6.38;;;2.20;;
15254;SDS011;7730;49.610;11.136;2023-09-19T00:37:36;4.57;;;2.00;;
15254;SDS011;7730;49.610;11.136;2023-09-19T00:40:06;2.75;;;1.88;;
15254;SDS011;7730;49.610;11.136;2023-09-19T00:42:37;3.85;;;1.80;;
15254;SDS011;7730;49.610;11.136;2023-09-19T00:45:04;5.38;;;1.90;;
15254;SDS011;7730;49.610;11.136;2023-09-19T00:47:31;3.05;;;1.77;;
15254;SDS011;7730;49.610;11.136;2023-09-19T00:49:59;3.20;;;1.73;;
15254;SDS011;7730;49.610;11.136;2023-09-19T00:52:26;4.25;;;1.80;;
15254;SDS011;7730;49.610;11.136;2023-09-19T00:54:53;4.32;;;1.77;;
15254;SDS011;7730;49.610;11.136;2023-09-19T00:57:22;5.25;;;1.80;;
15254;SDS011;7730;49.610;11.136;2023-09-19T00:59:50;5.18;;;1.80;;
15254;SDS011;7730;49.610;11.136;2023-09-19T01:02:19;4.78;;;1.80;;
15254;SDS011;7730;49.610;11.136;2023-09-19T01:04:47;2.80;;;1.70;;
15254;SDS011;7730;49.610;11.136;2023-09-19T01:07:14;4.15;;;1.70;;
15254;SDS011;7730;49.610;11.136;2023-09-19T01:09:41;4.03;;;1.58;;
15254;SDS011;7730;49.610;11.136;2023-09-19T01:12:09;4.93;;;1.70;;
15254;SDS011;7730;49.610;11.136;2023-09-19T01:14:41;4.88;;;1.77;;
15254;SDS011;7730;49.610;11.136;2023-09-19T01:17:09;4.03;;;2.00;;
15254;SDS011;7730;49.610;11.136;2023-09-19T01:19:54;4.95;;;1.90;;
15254;SDS011;7730;49.610;11.136;2023-09-19T01:22:31;4.72;;;1.70;;
15254;SDS011;7730;49.610;11.136;2023-09-19T01:25:09;4.18;;;1.70;;
15254;SDS011;7730;49.610;11.136;2023-09-19T01:27:57;3.15;;;1.50;;
15254;SDS011;7730;49.610;11.136;2023-09-19T01:30:32;5.35;;;1.80;;
15254;SDS011;7730;49.610;11.136;2023-09-19T01:33:01;3.10;;;1.60;;
15254;SDS011;7730;49.610;11.136;2023-09-19T01:35:29;5.28;;;1.80;;
15254;SDS011;7730;49.610;11.136;2023-09-19T01:37:57;3.30;;;1.63;;
15254;SDS011;7730;49.610;11.136;2023-09-19T01:40:25;3.95;;;1.60;;
15254;SDS011;7730;49.610;11.136;2023-09-19T01:42:54;3.70;;;1.60;;
15254;SDS011;7730;49.610;11.136;2023-09-19T01:47:59;2.90;;;1.50;;
15254;SDS011;7730;49.610;11.136;2023-09-19T01:50:32;4.97;;;1.70;;
15254;SDS011;7730;49.610;11.136;2023-09-19T01:53:02;3.13;;;1.70;;
15254;SDS011;7730;49.610;11.136;2023-09-19T01:55:32;6.15;;;2.00;;
15254;SDS011;7730;49.610;11.136;2023-09-19T01:58:04;3.65;;;1.58;;
15254;SDS011;7730;49.610;11.136;2023-09-19T02:00:34;3.55;;;1.70;;
15254;SDS011;7730;49.610;11.136;2023-09-19T02:03:04;5.90;;;1.60;;
15254;SDS011;7730;49.610;11.136;2023-09-19T02:05:32;5.63;;;1.60;;
15254;SDS011;7730;49.610;11.136;2023-09-19T02:07:59;3.97;;;1.50;;
15254;SDS011;7730;49.610;11.136;2023-09-19T02:10:26;4.70;;;1.60;;
15254;SDS011;7730;49.610;11.136;2023-09-19T02:12:53;2.97;;;1.52;;
15254;SDS011;7730;49.610;11.136;2023-09-19T02:15:21;3.60;;;1.50;;
15254;SDS011;7730;49.610;11.136;2023-09-19T02:17:48;6.38;;;1.50;;
15254;SDS011;7730;49.610;11.136;2023-09-19T02:20:17;2.70;;;1.63;;
15254;SDS011;7730;49.610;11.136;2023-09-19T02:22:46;5.20;;;1.70;;
15254;SDS011;7730;49.610;11.136;2023-09-19T02:25:15;3.42;;;1.60;;
15254;SDS011;7730;49.610;11.136;2023-09-19T02:27:42;2.10;;;1.27;;
15254;SDS011;7730;49.610;11.136;2023-09-19T02:30:10;3.63;;;1.60;;
15254;SDS011;7730;49.610;11.136;2023-09-19T02:32:37;3.15;;;1.70;;
15254;SDS011;7730;49.610;11.136;2023-09-19T02:35:05;3.35;;;1.67;;
15254;SDS011;7730;49.610;11.136;2023-09-19T02:37:34;4.25;;;1.67;;
15254;SDS011;7730;49.610;11.136;2023-09-19T02:40:02;3.80;;;1.70;;
15254;SDS011;7730;49.610;11.136;2023-09-19T02:42:43;5.20;;;1.80;;
15254;SDS011;7730;49.610;11.136;2023-09-19T02:45:13;3.70;;;1.70;;
15254;SDS011;7730;49.610;11.136;2023-09-19T02:47:42;5.45;;;1.88;;
15254;SDS011;7730;49.610;11.136;2023-09-19T02:50:09;2.92;;;1.65;;
15254;SDS011;7730;49.610;11.136;2023-09-19T02:52:40;4.20;;;1.70;;
15254;SDS011;7730;49.610;11.136;2023-09-19T02:55:08;3.67;;;1.63;;
15254;SDS011;7730;49.610;11.136;2023-09-19T02:57:35;3.05;;;1.60;;
15254;SDS011;7730;49.610;11.136;2023-09-19T03:00:06;4.00;;;1.70;;
15254;SDS011;7730;49.610;11.136;2023-09-19T03:02:35;4.57;;;1.55;;
15254;SDS011;7730;49.610;11.136;2023-09-19T03:05:06;3.58;;;1.55;;
15254;SDS011;7730;49.610;11.136;2023-09-19T03:07:33;3.83;;;1.63;;
15254;SDS011;7730;49.610;11.136;2023-09-19T03:10:05;4.78;;;1.50;;
15254;SDS011;7730;49.610;11.136;2023-09-19T03:12:32;4.68;;;1.70;;
15254;SDS011;7730;49.610;11.136;2023-09-19T03:14:59;5.13;;;1.70;;
15254;SDS011;7730;49.610;11.136;2023-09-19T03:17:26;5.63;;;1.80;;
15254;SDS011;7730;49.610;11.136;2023-09-19T03:19:53;3.60;;;1.70;;
15254;SDS011;7730;49.610;11.136;2023-09-19T03:22:22;3.92;;;1.60;;
15254;SDS011;7730;49.610;11.136;2023-09-19T03:24:50;4.22;;;1.98;;
15254;SDS011;7730;49.610;11.136;2023-09-19T03:27:18;3.92;;;1.60;;
15254;SDS011;7730;49.610;11.136;2023-09-19T03:29:47;3.08;;;1.67;;
15254;SDS011;7730;49.610;11.136;2023-09-19T03:32:14;4.50;;;1.65;;
15254;SDS011;7730;49.610;11.136;2023-09-19T03:34:41;5.43;;;1.48;;
15254;SDS011;7730;49.610;11.136;2023-09-19T03:37:08;2.17;;;1.40;;
15254;SDS011;7730;49.610;11.136;2023-09-19T03:39:35;2.42;;;1.42;;
15254;SDS011;7730;49.610;11.136;2023-09-19T03:42:03;3.50;;;1.60;;
15254;SDS011;7730;49.610;11.136;2023-09-19T03:44:33;4.95;;;1.80;;
15254;SDS011;7730;49.610;11.136;2023-09-19T03:47:00;4.50;;;1.92;;
15254;SDS011;7730;49.610;11.136;2023-09-19T03:49:29;4.97;;;2.03;;
15254;SDS011;7730;49.610;11.136;2023-09-19T03:51:57;4.30;;;1.80;;
15254;SDS011;7730;49.610;11.136;2023-09-19T03:54:24;6.00;;;2.10;;
15254;SDS011;7730;49.610;11.136;2023-09-19T03:56:51;6.35;;;2.13;;
15254;SDS011;7730;49.610;11.136;2023-09-19T03:59:18;4.55;;;1.90;;
15254;SDS011;7730;49.610;11.136;2023-09-19T04:01:46;7.35;;;1.90;;
15254;SDS011;7730;49.610;11.136;2023-09-19T04:04:15;3.03;;;1.70;;
15254;SDS011;7730;49.610;11.136;2023-09-19T04:06:44;4.82;;;1.90;;
15254;SDS011;7730;49.610;11.136;2023-09-19T04:09:11;5.43;;;1.90;;
15254;SDS011;7730;49.610;11.136;2023-09-19T04:11:38;4.72;;;1.67;;
15254;SDS011;7730;49.610;11.136;2023-09-19T04:14:05;4.57;;;1.60;;
15254;SDS011;7730;49.610;11.136;2023-09-19T04:16:32;2.72;;;1.80;;
15254;SDS011;7730;49.610;11.136;2023-09-19T04:19:00;2.63;;;1.35;;
15254;SDS011;7730;49.610;11.136;2023-09-19T04:21:28;4.43;;;1.80;;
15254;SDS011;7730;49.610;11.136;2023-09-19T04:23:57;3.15;;;1.50;;
15254;SDS011;7730;49.610;11.136;2023-09-19T04:26:24;3.45;;;1.60;;
15254;SDS011;7730;49.610;11.136;2023-09-19T04:28:51;5.63;;;1.80;;
15254;SDS011;7730;49.610;11.136;2023-09-19T04:31:18;4.95;;;1.60;;
15254;SDS011;7730;49.610;11.136;2023-09-19T04:33:46;3.05;;;1.60;;
15254;SDS011;7730;49.610;11.136;2023-09-19T04:36:15;5.20;;;1.95;;
15254;SDS011;7730;49.610;11.136;2023-09-19T04:38:42;3.20;;;1.60;;
15254;SDS011;7730;49.610;11.136;2023-09-19T04:41:09;3.97;;;1.55;;
15254;SDS011;7730;49.610;11.136;2023-09-19T04:43:36;3.83;;;1.63;;
15254;SDS011;7730;49.610;11.136;2023-09-19T04:46:03;4.88;;;1.65;;
15254;SDS011;7730;49.610;11.136;2023-09-19T04:48:31;3.35;;;1.63;;
15254;SDS011;7730;49.610;11.136;2023-09-19T04:50:59;2.67;;;1.80;;
15254;SDS011;7730;49.610;11.136;2023-09-19T04:53:28;3.65;;;1.70;;
15254;SDS011;7730;49.610;11.136;2023-09-19T04:55:55;3.72;;;1.42;;
15254;SDS011;7730;49.610;11.136;2023-09-19T04:58:23;4.40;;;1.42;;
15254;SDS011;7730;49.610;11.136;2023-09-19T05:00:50;3.65;;;1.70;;
15254;SDS011;7730;49.610;11.136;2023-09-19T05:03:17;4.50;;;1.75;;
15254;SDS011;7730;49.610;11.136;2023-09-19T05:05:45;5.30;;;1.90;;
15254;SDS011;7730;49.610;11.136;2023-09-19T05:08:12;4.57;;;1.60;;
15254;SDS011;7730;49.610;11.136;2023-09-19T05:10:41;4.75;;;1.85;;
15254;SDS011;7730;49.610;11.136;2023-09-19T05:13:08;4.53;;;1.70;;
15254;SDS011;7730;49.610;11.136;2023-09-19T05:15:35;4.20;;;1.70;;
15254;SDS011;7730;49.610;11.136;2023-09-19T05:18:02;2.78;;;1.65;;
15254;SDS011;7730;49.610;11.136;2023-09-19T05:20:31;4.75;;;1.90;;
15254;SDS011;7730;49.610;11.136;2023-09-19T05:23:00;5.90;;;1.98;;
15254;SDS011;7730;49.610;11.136;2023-09-19T05:25:28;4.93;;;1.90;;
15254;SDS011;7730;49.610;11.136;2023-09-19T05:27:57;4.03;;;1.90;;
15254;SDS011;7730;49.610;11.136;2023-09-19T05:30:25;5.88;;;2.10;;
15254;SDS011;7730;49.610;11.136;2023-09-19T05:32:54;3.05;;;1.65;;
15254;SDS011;7730;49.610;11.136;2023-09-19T05:35:21;5.22;;;1.83;;
15254;SDS011;7730;49.610;11.136;2023-09-19T05:37:50;4.97;;;1.70;;
15254;SDS011;7730;49.610;11.136;2023-09-19T05:40:17;2.42;;;1.70;;
15254;SDS011;7730;49.610;11.136;2023-09-19T05:42:46;6.07;;;1.48;;
15254;SDS011;7730;49.610;11.136;2023-09-19T05:45:16;5.95;;;1.90;;
15254;SDS011;7730;49.610;11.136;2023-09-19T05:47:47;3.72;;;1.63;;
15254;SDS011;7730;49.610;11.136;2023-09-19T05:50:15;5.30;;;1.70;;
15254;SDS011;7730;49.610;11.136;2023-09-19T05:52:43;6.65;;;1.85;;
15254;SDS011;7730;49.610;11.136;2023-09-19T05:55:11;4.35;;;1.70;;
15254;SDS011;7730;49.610;11.136;2023-09-19T05:57:38;3.22;;;1.60;;
15254;SDS011;7730;49.610;11.136;2023-09-19T06:00:07;5.45;;;1.88;;
15254;SDS011;7730;49.610;11.136;2023-09-19T06:02:37;8.10;;;2.28;;
15254;SDS011;7730;49.610;11.136;2023-09-19T06:05:05;3.38;;;1.70;;
15254;SDS011;7730;49.610;11.136;2023-09-19T06:07:35;4.70;;;1.90;;
15254;SDS011;7730;49.610;11.136;2023-09-19T06:10:02;5.47;;;2.00;;
15254;SDS011;7730;49.610;11.136;2023-09-19T06:12:31;4.28;;;1.63;;
15254;SDS011;7730;49.610;11.136;2023-09-19T06:15:02;5.05;;;1.90;;
15254;SDS011;7730;49.610;11.136;2023-09-19T06:17:30;7.22;;;2.00;;
15254;SDS011;7730;49.610;11.136;2023-09-19T06:19:59;9.25;;;2.10;;
15254;SDS011;7730;49.610;11.136;2023-09-19T06:22:29;7.43;;;1.90;;
15254;SDS011;7730;49.610;11.136;2023-09-19T06:24:56;4.78;;;1.80;;
15254;SDS011;7730;49.610;11.136;2023-09-19T06:27:23;5.35;;;2.00;;
15254;SDS011;7730;49.610;11.136;2023-09-19T06:29:50;5.97;;;2.00;;
15254;SDS011;7730;49.610;11.136;2023-09-19T06:32:17;6.30;;;1.88;;
15254;SDS011;7730;49.610;11.136;2023-09-19T06:34:45;7.18;;;1.85;;
15254;SDS011;7730;49.610;11.136;2023-09-19T06:37:13;3.22;;;1.70;;
15254;SDS011;7730;49.610;11.136;2023-09-19T06:39:40;4.70;;;1.60;;
15254;SDS011;7730;49.610;11.136;2023-09-19T06:42:07;7.07;;;1.90;;
15254;SDS011;7730;49.610;11.136;2023-09-19T06:44:35;4.68;;;1.80;;
15254;SDS011;7730;49.610;11.136;2023-09-19T06:47:03;4.93;;;1.88;;
15254;SDS011;7730;49.610;11.136;2023-09-19T06:49:31;7.25;;;1.98;;
15254;SDS011;7730;49.610;11.136;2023-09-19T06:52:01;5.80;;;1.85;;
15254;SDS011;7730;49.610;11.136;2023-09-19T06:54:31;4.07;;;1.70;;
15254;SDS011;7730;49.610;11.136;2023-09-19T06:56:59;5.38;;;2.00;;
15254;SDS011;7730;49.610;11.136;2023-09-19T06:59:26;4.07;;;1.90;;
15254;SDS011;7730;49.610;11.136;2023-09-19T07:01:53;4.60;;;2.00;;
15254;SDS011;7730;49.610;11.136;2023-09-19T07:04:20;5.40;;;1.92;;
15254;SDS011;7730;49.610;11.136;2023-09-19T07:06:49;9.73;;;2.20;;
15254;SDS011;7730;49.610;11.136;2023-09-19T07:09:16;5.55;;;2.10;;
15254;SDS011;7730;49.610;11.136;2023-09-19T07:11:45;5.35;;;2.05;;
15254;SDS011;7730;49.610;11.136;2023-09-19T07:14:13;6.22;;;2.10;;
15254;SDS011;7730;49.610;11.136;2023-09-19T07:16:40;6.90;;;2.28;;
15254;SDS011;7730;49.610;11.136;2023-09-19T07:19:09;6.68;;;2.00;;
15254;SDS011;7730;49.610;11.136;2023-09-19T07:21:36;5.88;;;2.00;;
15254;SDS011;7730;49.610;11.136;2023-09-19T07:24:04;4.05;;;1.70;;
15254;SDS011;7730;49.610;11.136;2023-09-19T07:26:33;6.25;;;2.20;;
15254;SDS011;7730;49.610;11.136;2023-09-19T07:29:01;7.28;;;1.88;;
15254;SDS011;7730;49.610;11.136;2023-09-19T07:31:28;4.72;;;2.10;;
15254;SDS011;7730;49.610;11.136;2023-09-19T07:33:56;10.07;;;3.72;;
15254;SDS011;7730;49.610;11.136;2023-09-19T07:36:24;14.80;;;3.90;;
15254;SDS011;7730;49.610;11.136;2023-09-19T07:38:51;12.75;;;4.07;;
15254;SDS011;7730;49.610;11.136;2023-09-19T07:41:19;11.23;;;3.60;;
15254;SDS011;7730;49.610;11.136;2023-09-19T07:43:48;8.25;;;3.40;;
15254;SDS011;7730;49.610;11.136;2023-09-19T07:48:44;12.05;;;4.28;;
15254;SDS011;7730;49.610;11.136;2023-09-19T07:51:14;9.48;;;3.60;;
15254;SDS011;7730;49.610;11.136;2023-09-19T07:53:42;7.30;;;2.60;;
15254;SDS011;7730;49.610;11.136;2023-09-19T07:56:09;11.93;;;3.65;;
15254;SDS011;7730;49.610;11.136;2023-09-19T07:58:39;8.27;;;2.70;;
15254;SDS011;7730;49.610;11.136;2023-09-19T08:01:09;13.45;;;4.57;;
15254;SDS011;7730;49.610;11.136;2023-09-19T08:03:37;10.45;;;3.65;;
15254;SDS011;7730;49.610;11.136;2023-09-19T08:06:07;11.27;;;3.83;;
15254;SDS011;7730;49.610;11.136;2023-09-19T08:08:34;14.30;;;5.30;;
15254;SDS011;7730;49.610;11.136;2023-09-19T08:11:02;12.48;;;3.88;;
15254;SDS011;7730;49.610;11.136;2023-09-19T08:13:35;7.88;;;2.85;;
15254;SDS011;7730;49.610;11.136;2023-09-19T08:16:03;12.00;;;3.65;;
15254;SDS011;7730;49.610;11.136;2023-09-19T08:18:32;4.20;;;1.67;;
15254;SDS011;7730;49.610;11.136;2023-09-19T08:21:00;4.53;;;2.10;;
15254;SDS011;7730;49.610;11.136;2023-09-19T08:23:29;7.35;;;3.03;;
15254;SDS011;7730;49.610;11.136;2023-09-19T08:25:57;7.07;;;2.63;;
15254;SDS011;7730;49.610;11.136;2023-09-19T08:28:28;7.05;;;2.00;;
15254;SDS011;7730;49.610;11.136;2023-09-19T08:30:55;5.90;;;2.40;;
15254;SDS011;7730;49.610;11.136;2023-09-19T08:33:23;11.00;;;2.97;;
15254;SDS011;7730;49.610;11.136;2023-09-19T08:35:50;9.05;;;2.00;;
15254;SDS011;7730;49.610;11.136;2023-09-19T08:38:17;6.60;;;1.92;;
15254;SDS011;7730;49.610;11.136;2023-09-19T08:40:46;8.25;;;2.55;;
15254;SDS011;7730;49.610;11.136;2023-09-19T08:43:13;7.38;;;1.98;;
15254;SDS011;7730;49.610;11.136;2023-09-19T08:45:40;4.05;;;1.58;;
15254;SDS011;7730;49.610;11.136;2023-09-19T08:48:11;12.00;;;2.70;;
15254;SDS011;7730;49.610;11.136;2023-09-19T08:50:44;7.18;;;2.28;;
15254;SDS011;7730;49.610;11.136;2023-09-19T08:53:15;5.25;;;1.90;;
15254;SDS011;7730;49.610;11.136;2023-09-19T08:55:42;6.47;;;2.10;;
15254;SDS011;7730;49.610;11.136;2023-09-19T08:58:15;6.47;;;1.90;;
15254;SDS011;7730;49.610;11.136;2023-09-19T09:00:44;11.05;;;2.60;;
15254;SDS011;7730;49.610;11.136;2023-09-19T09:03:14;20.80;;;3.25;;
15254;SDS011;7730;49.610;11.136;2023-09-19T09:05:45;6.32;;;2.08;;
15254;SDS011;7730;49.610;11.136;2023-09-19T09:08:14;5.63;;;1.92;;
15254;SDS011;7730;49.610;11.136;2023-09-19T09:10:41;7.30;;;2.00;;
15254;SDS011;7730;49.610;11.136;2023-09-19T09:13:11;11.70;;;2.50;;
15254;SDS011;7730;49.610;11.136;2023-09-19T09:15:42;16.17;;;2.65;;
15254;SDS011;7730;49.610;11.136;2023-09-19T09:18:09;8.27;;;2.10;;
15254;SDS011;7730;49.610;11.136;2023-09-19T09:20:36;5.03;;;1.70;;
15254;SDS011;7730;49.610;11.136;2023-09-19T09:23:03;6.93;;;2.00;;
15254;SDS011;7730;49.610;11.136;2023-09-19T09:25:47;4.85;;;1.80;;
15254;SDS011;7730;49.610;11.136;2023-09-19T09:28:18;5.40;;;1.80;;
15254;SDS011;7730;49.610;11.136;2023-09-19T09:30:47;7.60;;;1.90;;
15254;SDS011;7730;49.610;11.136;2023-09-19T09:33:15;3.92;;;1.60;;
15254;SDS011;7730;49.610;11.136;2023-09-19T09:35:49;4.43;;;1.50;;
15254;SDS011;7730;49.610;11.136;2023-09-19T09:38:22;4.90;;;1.70;;
15254;SDS011;7730;49.610;11.136;2023-09-19T09:40:52;5.32;;;1.80;;
15254;SDS011;7730;49.610;11.136;2023-09-19T09:43:25;8.45;;;2.05;;
15254;SDS011;7730;49.610;11.136;2023-09-19T09:46:07;4.20;;;1.73;;
15254;SDS011;7730;49.610;11.136;2023-09-19T09:48:57;6.10;;;1.58;;
15254;SDS011;7730;49.610;11.136;2023-09-19T09:51:43;6.40;;;1.88;;
15254;SDS011;7730;49.610;11.136;2023-09-19T09:54:12;4.32;;;1.50;;
15254;SDS011;7730;49.610;11.136;2023-09-19T09:56:51;4.30;;;1.73;;
15254;SDS011;7730;49.610;11.136;2023-09-19T09:59:19;5.32;;;1.73;;
15254;SDS011;7730;49.610;11.136;2023-09-19T10:01:50;2.33;;;1.40;;
15254;SDS011;7730;49.610;11.136;2023-09-19T10:04:26;3.72;;;1.75;;
15254;SDS011;7730;49.610;11.136;2023-09-19T10:06:56;5.35;;;1.75;;
15254;SDS011;7730;49.610;11.136;2023-09-19T10:09:30;4.60;;;1.67;;
15254;SDS011;7730;49.610;11.136;2023-09-19T10:12:04;8.75;;;1.70;;
15254;SDS011;7730;49.610;11.136;2023-09-19T10:14:34;5.20;;;1.70;;
15254;SDS011;7730;49.610;11.136;2023-09-19T10:17:04;4.55;;;1.52;;
15254;SDS011;7730;49.610;11.136;2023-09-19T10:19:33;6.53;;;1.70;;
15254;SDS011;7730;49.610;11.136;2023-09-19T10:22:03;7.03;;;1.70;;
15254;SDS011;7730;49.610;11.136;2023-09-19T10:24:33;5.07;;;1.90;;
15254;SDS011;7730;49.610;11.136;2023-09-19T10:27:01;6.45;;;2.03;;
15254;SDS011;7730;49.610;11.136;2023-09-19T10:29:29;7.50;;;1.60;;
15254;SDS011;7730;49.610;11.136;2023-09-19T10:32:01;4.35;;;1.75;;
15254;SDS011;7730;49.610;11.136;2023-09-19T10:34:32;5.13;;;1.60;;
15254;SDS011;7730;49.610;11.136;2023-09-19T10:37:00;4.00;;;1.40;;
15254;SDS011;7730;49.610;11.136;2023-09-19T10:39:31;6.13;;;1.75;;
15254;SDS011;7730;49.610;11.136;2023-09-19T10:42:01;5.03;;;1.80;;
15254;SDS011;7730;49.610;11.136;2023-09-19T10:44:31;4.45;;;1.70;;
15254;SDS011;7730;49.610;11.136;2023-09-19T10:46:58;6.00;;;1.77;;
15254;SDS011;7730;49.610;11.136;2023-09-19T10:49:26;15.52;;;2.20;;
15254;SDS011;7730;49.610;11.136;2023-09-19T10:51:58;3.67;;;1.63;;
15254;SDS011;7730;49.610;11.136;2023-09-19T10:54:28;6.03;;;1.70;;
15254;SDS011;7730;49.610;11.136;2023-09-19T10:56:57;8.43;;;1.83;;
15254;SDS011;7730;49.610;11.136;2023-09-19T10:59:26;13.10;;;2.60;;
15254;SDS011;7730;49.610;11.136;2023-09-19T11:02:00;6.03;;;1.77;;
15254;SDS011;7730;49.610;11.136;2023-09-19T11:04:42;16.40;;;3.10;;
15254;SDS011;7730;49.610;11.136;2023-09-19T11:07:14;12.02;;;2.20;;
15254;SDS011;7730;49.610;11.136;2023-09-19T11:09:48;17.63;;;2.80;;
15254;SDS011;7730;49.610;11.136;2023-09-19T11:15:06;5.72;;;1.90;;
15254;SDS011;7730;49.610;11.136;2023-09-19T11:17:35;4.93;;;1.75;;
15254;SDS011;7730;49.610;11.136;2023-09-19T11:20:19;5.40;;;1.60;;
15254;SDS011;7730;49.610;11.136;2023-09-19T11:23:18;4.15;;;1.65;;
15254;SDS011;7730;49.610;11.136;2023-09-19T11:25:47;4.22;;;1.98;;
15254;SDS011;7730;49.610;11.136;2023-09-19T11:28:36;6.65;;;1.90;;
15254;SDS011;7730;49.610;11.136;2023-09-19T11:33:49;4.90;;;1.77;;
15254;SDS011;7730;49.610;11.136;2023-09-19T11:36:36;4.57;;;1.60;;
15254;SDS011;7730;49.610;11.136;2023-09-19T11:39:04;4.93;;;1.70;;
15254;SDS011;7730;49.610;11.136;2023-09-19T11:41:39;9.50;;;1.90;;
15254;SDS011;7730;49.610;11.136;2023-09-19T11:46:52;7.32;;;1.70;;
15254;SDS011;7730;49.610;11.136;2023-09-19T11:49:23;14.95;;;2.20;;
15254;SDS011;7730;49.610;11.136;2023-09-19T11:51:56;7.68;;;1.52;;
15254;SDS011;7730;49.610;11.136;2023-09-19T11:54:25;3.65;;;1.52;;
15254;SDS011;7730;49.610;11.136;2023-09-19T11:56:57;8.75;;;1.95;;
15254;SDS011;7730;49.610;11.136;2023-09-19T11:59:25;7.30;;;1.70;;
15254;SDS011;7730;49.610;11.136;2023-09-19T12:01:53;6.03;;;1.80;;
15254;SDS011;7730;49.610;11.136;2023-09-19T12:04:33;4.97;;;1.70;;
15254;SDS011;7730;49.610;11.136;2023-09-19T12:07:02;5.30;;;1.77;;
15254;SDS011;7730;49.610;11.136;2023-09-19T12:09:32;4.97;;;1.60;;
15254;SDS011;7730;49.610;11.136;2023-09-19T12:12:06;6.28;;;1.40;;
15254;SDS011;7730;49.610;11.136;2023-09-19T12:14:34;3.63;;;1.60;;
15254;SDS011;7730;49.610;11.136;2023-09-19T12:17:01;7.25;;;2.00;;
15254;SDS011;7730;49.610;11.136;2023-09-19T12:19:29;3.90;;;1.48;;
15254;SDS011;7730;49.610;11.136;2023-09-19T12:21:57;4.78;;;1.58;;
15254;SDS011;7730;49.610;11.136;2023-09-19T12:24:24;7.85;;;1.85;;
15254;SDS011;7730;49.610;11.136;2023-09-19T12:26:59;5.38;;;1.48;;
15254;SDS011;7730;49.610;11.136;2023-09-19T12:29:27;9.70;;;1.90;;
15254;SDS011;7730;49.610;11.136;2023-09-19T12:31:55;13.05;;;2.67;;
15254;SDS011;7730;49.610;11.136;2023-09-19T12:34:23;10.80;;;2.92;;
15254;SDS011;7730;49.610;11.136;2023-09-19T12:37:03;9.23;;;2.25;;
15254;SDS011;7730;49.610;11.136;2023-09-19T12:39:36;8.93;;;2.03;;
15254;SDS011;7730;49.610;11.136;2023-09-19T12:42:04;6.50;;;1.60;;
15254;SDS011;7730;49.610;11.136;2023-09-19T12:44:34;5.20;;;1.42;;
15254;SDS011;7730;49.610;11.136;2023-09-19T12:47:07;6.05;;;1.70;;
15254;SDS011;7730;49.610;11.136;2023-09-19T12:49:34;6.50;;;1.80;;
15254;SDS011;7730;49.610;11.136;2023-09-19T12:52:02;3.22;;;1.50;;
15254;SDS011;7730;49.610;11.136;2023-09-19T12:54:37;4.57;;;1.60;;
15254;SDS011;7730;49.610;11.136;2023-09-19T12:57:06;1.80;;;1.15;;
15254;SDS011;7730;49.610;11.136;2023-09-19T12:59:33;11.38;;;2.00;;
15254;SDS011;7730;49.610;11.136;2023-09-19T13:02:04;14.93;;;2.83;;
15254;SDS011;7730;49.610;11.136;2023-09-19T13:04:38;10.35;;;2.15;;
15254;SDS011;7730;49.610;11.136;2023-09-19T13:07:08;10.70;;;2.50;;
15254;SDS011;7730;49.610;11.136;2023-09-19T13:10:05;5.15;;;1.70;;
15254;SDS011;7730;49.610;11.136;2023-09-19T13:12:34;8.05;;;1.88;;
15254;SDS011;7730;49.610;11.136;2023-09-19T13:15:08;6.28;;;1.90;;
15254;SDS011;7730;49.610;11.136;2023-09-19T13:17:44;6.22;;;1.83;;
15254;SDS011;7730;49.610;11.136;2023-09-19T13:20:20;6.25;;;1.90;;
15254;SDS011;7730;49.610;11.136;2023-09-19T13:22:52;5.93;;;1.75;;
15254;SDS011;7730;49.610;11.136;2023-09-19T13:25:25;6.97;;;1.60;;
15254;SDS011;7730;49.610;11.136;2023-09-19T13:27:55;8.25;;;1.70;;
15254;SDS011;7730;49.610;11.136;2023-09-19T13:30:23;5.13;;;1.60;;
15254;SDS011;7730;49.610;11.136;2023-09-19T13:32:50;12.63;;;3.70;;
15254;SDS011;7730;49.610;11.136;2023-09-19T13:35:18;14.02;;;4.22;;
15254;SDS011;7730;49.610;11.136;2023-09-19T13:37:46;13.18;;;4.00;;
15254;SDS011;7730;49.610;11.136;2023-09-19T13:40:16;18.08;;;5.28;;
15254;SDS011;7730;49.610;11.136;2023-09-19T13:42:45;16.35;;;6.88;;
15254;SDS011;7730;49.610;11.136;2023-09-19T13:45:12;16.58;;;5.10;;
15254;SDS011;7730;49.610;11.136;2023-09-19T13:47:42;16.65;;;6.22;;
15254;SDS011;7730;49.610;11.136;2023-09-19T13:50:09;13.40;;;4.55;;
15254;SDS011;7730;49.610;11.136;2023-09-19T13:52:36;4.35;;;1.60;;
15254;SDS011;7730;49.610;11.136;2023-09-19T13:55:03;2.15;;;1.40;;
15254;SDS011;7730;49.610;11.136;2023-09-19T13:57:31;15.10;;;4.95;;
15254;SDS011;7730;49.610;11.136;2023-09-19T14:00:00;5.63;;;2.00;;
15254;SDS011;7730;49.610;11.136;2023-09-19T14:02:27;7.75;;;2.25;;
15254;SDS011;7730;49.610;11.136;2023-09-19T14:04:55;12.82;;;3.45;;
15254;SDS011;7730;49.610;11.136;2023-09-19T14:07:22;7.57;;;2.50;;
15254;SDS011;7730;49.610;11.136;2023-09-19T14:09:50;9.05;;;3.13;;
15254;SDS011;7730;49.610;11.136;2023-09-19T14:12:19;5.93;;;2.30;;
15254;SDS011;7730;49.610;11.136;2023-09-19T14:14:46;4.60;;;1.80;;
15254;SDS011;7730;49.610;11.136;2023-09-19T14:17:17;8.65;;;2.65;;
15254;SDS011;7730;49.610;11.136;2023-09-19T14:19:44;3.45;;;1.65;;
15254;SDS011;7730;49.610;11.136;2023-09-19T14:22:11;4.85;;;1.75;;
15254;SDS011;7730;49.610;11.136;2023-09-19T14:24:39;4.80;;;1.58;;
15254;SDS011;7730;49.610;11.136;2023-09-19T14:27:07;4.00;;;1.50;;
15254;SDS011;7730;49.610;11.136;2023-09-19T14:29:34;4.88;;;1.75;;
15254;SDS011;7730;49.610;11.136;2023-09-19T14:32:01;6.05;;;2.15;;
15254;SDS011;7730;49.610;11.136;2023-09-19T14:34:30;5.00;;;1.80;;
15254;SDS011;7730;49.610;11.136;2023-09-19T14:36:57;4.38;;;1.55;;
15254;SDS011;7730;49.610;11.136;2023-09-19T14:39:25;4.47;;;1.80;;
15254;SDS011;7730;49.610;11.136;2023-09-19T14:41:52;5.13;;;1.50;;
15254;SDS011;7730;49.610;11.136;2023-09-19T14:44:19;5.13;;;1.98;;
15254;SDS011;7730;49.610;11.136;2023-09-19T14:46:47;4.97;;;1.58;;
15254;SDS011;7730;49.610;11.136;2023-09-19T14:49:14;5.00;;;1.70;;
15254;SDS011;7730;49.610;11.136;2023-09-19T14:51:43;5.68;;;1.90;;
15254;SDS011;7730;49.610;11.136;2023-09-19T14:54:12;4.45;;;1.70;;
15254;SDS011;7730;49.610;11.136;2023-09-19T14:56:41;6.20;;;1.80;;
15254;SDS011;7730;49.610;11.136;2023-09-19T14:59:09;4.38;;;1.45;;
15254;SDS011;7730;49.610;11.136;2023-09-19T15:01:37;4.53;;;1.70;;
15254;SDS011;7730;49.610;11.136;2023-09-19T15:04:06;6.90;;;1.67;;
15254;SDS011;7730;49.610;11.136;2023-09-19T15:06:33;6.03;;;1.50;;
15254;SDS011;7730;49.610;11.136;2023-09-19T15:09:02;3.55;;;1.50;;
15254;SDS011;7730;49.610;11.136;2023-09-19T15:11:30;7.50;;;1.92;;